Time;durP1;ratioP1;P1;durP2;ratioP2;P2;SDS_P1;SDS_P2;PMS_P1;PMS_P2;Temp;Humidity;BMP_temperature;BMP_pressure;BME280_temperature;BME280_humidity;BME280_pressure;Samples;Min_cycle;Max_cycle;Signal;HPM_P1;HPM_P2
2022/04/04 00:47:55;;;;;;;;;;;;;;;-0.01;90.09;101900.81;4662951;30;20157;-79
2022/04/04 00:50:56;;;;;;;;;;;;;;;;;;;;;
2022/04/04 00:53:43;;;;;;;9.65;7.53;;;;;;;-0.07;90.80;101889.00;4665116;30;20038;-80
2022/04/04 00:56:21;;;;;;;11.30;8.00;;;;;;;-1.17;91.03;101706.53;4664988;30;20548;-79
2022/04/04 01:20:51;;;;;;;12.63;9.27;;;;;;;-0.18;91.19;101857.72;4702519;30;20049;-80
2022/04/04 01:24:04;;;;;;;13.48;9.15;;;;;;;-1.29;90.57;101672.72;4702267;30;20140;-80
2022/04/04 01:34:13;;;;;;;11.82;8.70;;;;;;;-0.23;90.95;101828.09;4665537;30;20087;-79
2022/04/04 01:36:57;;;;;;;13.25;8.45;;;;;;;-0.74;90.92;101731.81;4665112;30;20465;-79
2022/04/04 01:52:15;;;;;;;10.55;8.05;;;;;;;-0.27;90.29;101786.66;4683248;30;20069;-80
2022/04/04 01:54:41;;;;;;;11.93;8.52;;;;;;;-0.39;90.00;101751.19;4684582;30;20480;-80
2022/04/04 01:57:09;;;;;;;13.13;8.65;;;;;;;-0.41;89.92;101748.63;4684467;30;20042;-80
2022/04/04 01:59:35;;;;;;;10.82;8.32;;;;;;;-0.32;90.11;101761.28;4684313;30;20121;-80
2022/04/04 03:46:51;;;;;;;10.75;7.50;;;;;;;-0.28;86.75;101396.69;4682413;30;20089;-80
2022/04/04 03:49:38;;;;;;;10.15;6.68;;;;;;;0.84;87.06;101566.56;4682758;30;20046;-80
2022/04/04 03:58:53;;;;;;;9.45;6.38;;;;;;;-0.18;86.48;101362.75;4682834;30;20068;-80
2022/04/04 04:01:22;;;;;;;11.93;7.00;;;;;;;-0.01;86.92;101390.47;4677491;30;20054;-79
2022/04/04 04:12:05;;;;;;;9.80;7.05;;;;;;;1.02;86.59;101518.06;2949479;25;20062;-80
2022/04/04 04:15:10;;;;;;;10.15;7.15;;;;;;;-0.12;86.68;101327.13;4664114;30;20069;-80
2022/04/04 04:17:39;;;;;;;11.43;6.88;;;;;;;0.61;86.53;101438.91;4649817;30;20030;-80
2022/04/04 04:23:52;;;;;;;;;;;;;;;;;;;;;
2022/04/04 04:26:21;;;;;;;11.32;6.93;;;;;;;0.74;86.81;101428.56;4664605;30;20526;-80
2022/04/04 04:29:11;;;;;;;10.63;7.32;;;;;;;1.20;86.57;101490.69;4664994;30;20050;-80
2022/04/04 04:31:39;;;;;;;10.02;7.00;;;;;;;0.75;86.40;101414.16;4663672;30;20037;-83
2022/04/04 04:38:02;;;;;;;10.20;7.18;;;;;;;-0.01;86.50;101268.63;4667256;30;20081;-80
2022/04/04 04:41:05;;;;;;;10.60;6.95;;;;;;;1.33;86.34;101466.75;4681927;25;20085;-80
2022/04/04 04:43:46;;;;;;;9.85;6.85;;;;;;;0.66;86.19;101348.19;4668668;30;20440;-82
2022/04/04 04:47:10;;;;;;;10.93;7.30;;;;;;;1.41;86.27;101458.16;4668391;30;20089;-82
2022/04/04 04:50:01;;;;;;;11.95;7.97;;;;;;;1.46;85.90;101452.97;4631820;31;20049;-83
2022/04/04 04:56:10;;;;;;;13.57;7.85;;;;;;;1.54;85.93;101445.22;4632022;31;20050;-80
2022/04/04 04:59:31;;;;;;;10.60;7.35;;;;;;;1.60;85.65;101434.97;4632313;31;20497;-82
2022/04/04 05:01:59;;;;;;;11.65;7.80;;;;;;;1.63;85.54;101432.34;4632414;31;20039;-83
2022/04/04 05:11:40;;;;;;;12.13;7.32;;;;;;;1.57;85.27;101379.84;4615225;31;20108;-80
2022/04/04 05:14:21;;;;;;;11.30;7.43;;;;;;;1.59;85.20;101372.19;4615416;31;20546;-80
2022/04/04 05:16:50;;;;;;;11.13;7.03;;;;;;;0.79;84.58;101231.06;4627416;30;20074;-80
2022/04/04 05:19:22;;;;;;;10.27;7.07;;;;;;;1.08;84.66;101262.78;4634887;30;20112;-80
2022/04/04 06:25:32;;;;;;;13.32;8.00;;;;;;;3.45;78.05;101261.88;4650019;30;20065;-82
2022/04/04 06:28:01;;;;;;;10.25;7.38;;;;;;;2.52;76.95;101106.13;4651355;30;20043;-81
2022/04/04 06:30:34;;;;;;;14.10;8.43;;;;;;;3.31;76.86;101210.34;4661518;30;20485;-81
2022/04/04 06:32:59;;;;;;;10.38;7.68;;;;;;;2.60;76.23;101088.09;4629540;30;20593;-84
2022/04/04 06:36:23;;;;;;;9.40;6.97;;;;;;;3.78;76.66;101266.94;4630800;30;20127;-83
2022/04/04 06:42:40;;;;;;;10.45;6.80;;;;;;;3.92;76.34;101252.06;4580712;31;20561;-82
2022/04/04 06:45:06;;;;;;;11.13;7.90;;;;;;;3.49;75.57;101169.88;4580818;31;20053;-81
2022/04/04 06:51:06;;;;;;;11.82;7.68;;;;;;;2.93;75.40;101067.66;4564561;31;20043;-82
2022/04/04 07:01:16;;;;;;;9.43;7.43;;;;;;;4.16;75.49;101219.84;4564071;31;20048;-83
2022/04/04 08:07:25;;;;;;;9.45;7.15;;;;;;;5.68;70.12;101097.78;5022341;25;20050;-79
2022/04/04 08:11:09;;;;;;;11.95;7.10;;;;;;;5.72;70.72;101081.41;4695014;30;20123;-81
2022/04/04 08:23:48;;;;;;;9.73;6.55;;;;;;;6.10;68.58;101054.28;4662853;30;20062;-79
2022/04/04 08:27:10;;;;;;;11.95;6.82;;;;;;;5.11;67.04;100884.88;4662960;30;20053;-81
2022/04/04 09:57:20;;;;;;;13.30;8.32;;;;;;;5.69;77.64;100959.34;5267656;25;20054;-80
2022/04/04 13:02:05;;;;;;;14.00;10.52;;;;;;;4.74;100.00;100716.63;5179582;25;20060;-79
2022/04/04 13:11:05;;;;;;;12.63;10.35;;;;;;;4.97;100.00;100763.47;4668214;30;20061;-78
2022/04/04 13:14:15;;;;;;;11.93;10.57;;;;;;;4.51;100.00;100678.34;4666612;30;20045;-80
2022/04/04 13:24:12;;;;;;;10.95;9.80;;;;;;;4.40;100.00;100648.09;4708109;25;20120;-77
2022/04/04 13:26:39;;;;;;;12.07;10.80;;;;;;;4.66;100.00;100693.09;4694790;25;20097;-76
2022/04/04 13:29:17;;;;;;;10.75;9.65;;;;;;;4.92;100.00;100729.53;4651577;30;20047;-76
2022/04/04 13:32:16;;;;;;;11.57;10.38;;;;;;;4.99;100.00;100744.59;4697015;25;20064;-77
2022/04/04 13:34:47;;;;;;;12.18;10.02;;;;;;;4.57;100.00;100670.44;4700676;30;20038;-74
2022/04/04 13:37:13;;;;;;;10.70;9.50;;;;;;;4.96;100.00;100713.19;4702048;30;20034;-74
2022/04/04 13:39:44;;;;;;;11.55;10.32;;;;;;;4.89;100.00;100707.47;4702280;30;20044;-76
2022/04/04 13:42:15;;;;;;;11.63;9.57;;;;;;;4.29;100.00;100604.25;4701831;30;20057;-76
2022/04/04 13:44:44;;;;;;;10.73;9.13;;;;;;;5.09;100.00;100730.50;4686149;30;20484;-76
2022/04/04 13:47:10;;;;;;;10.88;9.75;;;;;;;4.90;100.00;100689.50;4701849;30;20033;-79
2022/04/04 13:49:36;;;;;;;10.48;9.07;;;;;;;4.52;100.00;100631.41;4701502;30;20175;-76
2022/04/04 13:52:02;;;;;;;10.18;9.15;;;;;;;4.38;100.00;100600.47;4701965;30;20112;-80
2022/04/04 13:57:22;;;;;;;10.07;9.07;;;;;;;4.18;100.00;100562.97;4702003;30;20087;-78
2022/04/04 14:00:17;;;;;;;10.02;8.95;;;;;;;5.14;100.00;100700.44;4701715;30;20112;-74
2022/04/04 14:03:16;;;;;;;9.57;8.57;;;;;;;5.17;100.00;100713.09;4701572;30;20038;-76
2022/04/04 14:09:08;;;;;;;10.63;9.52;;;;;;;4.23;100.00;100541.44;4715719;30;20052;-75
2022/04/04 14:12:29;;;;;;;10.52;9.43;;;;;;;5.33;100.00;100681.75;4717534;30;20036;-75
2022/04/04 14:18:21;;;;;;;9.70;8.70;;;;;;;4.53;100.00;100564.06;4717204;30;20149;-78
2022/04/04 14:20:59;;;;;;;9.77;8.77;;;;;;;4.92;100.00;100628.06;4715964;30;20407;-76
2022/04/04 14:27:43;;;;;;;9.48;8.32;;;;;;;5.34;100.00;100680.84;4647862;30;20110;-75
2022/04/04 14:48:30;;;;;;;10.02;8.98;;;;;;;5.48;100.00;100658.84;5502334;25;20054;-77
2022/04/04 14:53:37;;;;;;;9.85;8.82;;;;;;;4.51;100.00;100504.47;4866022;25;20055;-81
2022/04/04 14:56:02;;;;;;;;;;;;;;;5.48;100.00;100669.06;4668068;30;20422;-86
2022/04/04 14:58:39;;;;;;;10.60;8.70;;;;;;;5.12;100.00;100606.72;4666845;30;19943;-85
2022/04/04 15:01:13;;;;;;;9.40;7.80;;;;;;;5.41;100.00;100654.91;4666470;30;20472;-87
2022/04/04 15:03:43;;;;;;;8.82;7.72;;;;;;;4.36;100.00;100477.84;4666283;30;20499;-87
2022/04/04 15:06:38;;;;;;;10.02;8.68;;;;;;;5.48;100.00;100658.00;4666318;30;20034;-81
2022/04/04 15:09:12;;;;;;;9.40;8.40;;;;;;;4.37;100.00;100471.00;4666001;30;20045;-86
2022/04/04 15:11:38;;;;;;;9.15;8.20;;;;;;;4.56;100.00;100492.34;4666656;30;20388;-85
2022/04/04 15:14:03;;;;;;;8.95;8.05;;;;;;;4.84;100.00;100536.28;4666459;30;20030;-85
2022/04/04 15:16:38;;;;;;;8.68;7.78;;;;;;;5.00;100.00;100551.75;4666258;30;20063;-85
2022/04/04 15:19:06;;;;;;;9.02;8.07;;;;;;;4.75;100.00;100508.53;4665916;30;20392;-86
2022/04/04 15:21:42;;;;;;;8.90;7.90;;;;;;;4.83;100.00;100526.94;4666125;30;20093;-84
2022/04/04 15:24:20;;;;;;;;;;;;;;;;;;;;;
2022/04/04 15:27:07;;;;;;;9.15;8.15;;;;;;;4.95;100.00;100540.91;4665577;30;20038;-86
2022/04/04 15:29:50;;;;;;;9.40;8.50;;;;;;;4.97;100.00;100534.00;4665663;30;20042;-80
2022/04/04 15:32:15;;;;;;;9.20;8.30;;;;;;;5.62;100.00;100642.03;4665662;30;20109;-77
2022/04/04 15:34:40;;;;;;;10.18;9.18;;;;;;;5.09;100.00;100545.41;4666086;30;20189;-83
2022/04/04 15:37:16;;;;;;;10.50;9.50;;;;;;;5.56;100.00;100627.75;4665650;30;20156;-83
2022/04/04 15:39:44;;;;;;;9.82;8.80;;;;;;;5.22;100.00;100569.56;4665891;30;20038;-83
2022/04/04 15:52:30;;;;;;;9.43;8.52;;;;;;;4.57;100.00;100446.22;4769719;25;20147;-81
2022/04/04 15:54:59;;;;;;;10.57;8.85;;;;;;;5.61;100.00;100613.03;4699640;30;20053;-82
2022/04/04 15:58:06;;;;;;;10.13;9.13;;;;;;;4.63;100.00;100455.38;4699684;30;20065;-83
2022/04/04 16:00:47;;;;;;;9.80;8.30;;;;;;;4.78;100.00;100474.31;4699519;30;20030;-84
2022/04/04 16:03:22;;;;;;;8.93;8.02;;;;;;;4.50;100.00;100432.03;4699708;30;20141;-80
2022/04/04 16:05:47;;;;;;;10.38;8.77;;;;;;;5.72;100.00;100615.94;4699622;30;20104;-81
2022/04/04 16:08:25;;;;;;;9.73;8.73;;;;;;;4.65;100.00;100439.94;4699338;30;20133;-82
2022/04/04 16:10:50;;;;;;;9.00;8.10;;;;;;;4.88;100.00;100475.56;4699555;30;20040;-81
2022/04/04 16:13:20;;;;;;;9.40;8.50;;;;;;;5.06;100.00;100505.44;4699649;30;20041;-83
2022/04/04 16:15:54;;;;;;;8.70;7.80;;;;;;;5.11;100.00;100500.09;4699435;30;20108;-83
2022/04/04 16:18:34;;;;;;;9.00;8.10;;;;;;;5.34;100.00;100535.72;4699501;30;20507;-82
2022/04/04 16:21:39;;;;;;;9.27;7.93;;;;;;;5.75;100.00;100597.84;4699513;30;20056;-83
2022/04/04 16:24:33;;;;;;;8.68;7.78;;;;;;;5.78;100.00;100599.41;4697923;30;20033;-81
2022/04/04 16:27:22;;;;;;;9.57;8.18;;;;;;;5.14;100.00;100500.81;4699078;30;20029;-84
2022/04/04 16:30:28;;;;;;;8.63;7.63;;;;;;;5.80;100.00;100600.19;4685776;30;20041;-84
2022/04/04 16:32:54;;;;;;;8.88;7.80;;;;;;;5.08;100.00;100493.38;4702817;30;20040;-82
2022/04/04 16:35:22;;;;;;;8.32;7.43;;;;;;;5.53;100.00;100565.63;4702939;30;20033;-82
2022/04/04 16:41:21;;;;;;;8.77;7.68;;;;;;;5.33;100.00;100535.81;4702994;30;20072;-79
2022/04/04 16:43:50;;;;;;;9.63;8.60;;;;;;;5.09;100.00;100497.59;4687048;30;20033;-78
2022/04/04 16:46:23;;;;;;;9.45;8.45;;;;;;;5.67;100.00;100592.25;4703010;30;20033;-78
2022/04/04 16:49:01;;;;;;;9.30;8.18;;;;;;;5.74;100.00;100603.88;4702587;30;20583;-80
2022/04/04 16:52:20;;;;;;;10.00;8.77;;;;;;;5.79;100.00;100600.25;4702611;30;20062;-80
2022/04/04 16:55:05;;;;;;;10.48;9.10;;;;;;;5.80;100.00;100596.78;4699698;30;20041;-80
2022/04/04 16:57:36;;;;;;;10.50;9.40;;;;;;;5.30;100.00;100518.81;4702396;30;20067;-82
2022/04/04 17:00:10;;;;;;;10.93;9.60;;;;;;;4.69;100.00;100424.38;4702636;30;20093;-81
2022/04/04 17:02:38;;;;;;;11.18;9.98;;;;;;;5.59;100.00;100566.13;4702209;30;20120;-83
2022/04/04 17:05:04;;;;;;;10.43;9.32;;;;;;;5.53;100.00;100550.25;4702486;30;20380;-82
2022/04/04 17:07:33;;;;;;;10.98;9.77;;;;;;;5.73;100.00;100583.44;4702586;30;20036;-82
2022/04/04 17:10:02;;;;;;;11.35;10.13;;;;;;;5.66;100.00;100570.09;4702230;30;20372;-82
2022/04/04 17:12:27;;;;;;;12.20;10.60;;;;;;;5.88;100.00;100599.81;4702055;30;20120;-82
2022/04/04 17:14:56;;;;;;;12.27;10.50;;;;;;;5.68;100.00;100562.31;4702470;30;20173;-82
2022/04/04 17:17:22;;;;;;;12.88;10.27;;;;;;;5.86;100.00;100588.81;4702066;30;20025;-81
2022/04/04 17:19:47;;;;;;;13.48;11.13;;;;;;;5.91;100.00;100590.31;4702025;30;20030;-82
2022/04/04 17:35:53;;;;;;;13.75;10.75;;;;;;;4.83;100.00;100411.00;4678526;30;20062;-84
2022/04/04 17:38:27;;;;;;;15.20;11.70;;;;;;;5.50;100.00;100520.47;4684539;30;20104;-80
2022/04/04 17:44:41;;;;;;;17.58;12.98;;;;;;;5.93;100.00;100580.81;4684337;30;20104;-80
2022/04/04 17:50:39;;;;;;;18.95;12.45;;;;;;;5.96;100.00;100578.09;4665251;30;20083;-78
2022/04/04 17:53:12;;;;;;;19.13;13.65;;;;;;;4.99;100.00;100421.31;4683633;30;20130;-77
2022/04/04 17:55:38;;;;;;;16.58;12.52;;;;;;;4.84;100.00;100392.19;4684297;30;20030;-82
2022/04/04 17:58:06;;;;;;;16.63;13.00;;;;;;;5.28;100.00;100459.19;4684419;30;20084;-79
2022/04/04 18:00:39;;;;;;;15.70;12.65;;;;;;;4.92;100.00;100399.47;4684429;30;20117;-79
2022/04/04 18:03:08;;;;;;;17.63;13.35;;;;;;;5.11;100.00;100431.84;4683904;30;20046;-81
2022/04/04 18:28:29;;;;;;;33.85;18.63;;;;;;;4.93;100.00;100388.38;5455219;24;20058;-81
2022/04/04 18:34:21;;;;;;;40.13;20.13;;;;;;;5.32;100.00;100442.81;4631365;30;20074;-81
2022/04/04 18:37:05;;;;;;;44.13;23.05;;;;;;;4.81;100.00;100354.75;4630721;31;20061;-82
2022/04/04 18:39:43;;;;;;;43.42;21.98;;;;;;;5.04;100.00;100383.56;4630321;31;20048;-83
2022/04/04 18:42:42;;;;;;;46.72;22.15;;;;;;;6.14;100.00;100565.28;4616671;31;20035;-81
2022/04/04 18:45:41;;;;;;;48.67;22.27;;;;;;;6.16;100.00;100561.75;4630816;31;20066;-83
2022/04/04 18:48:41;;;;;;;48.05;23.23;;;;;;;6.15;100.00;100557.53;4631957;30;20070;-82
2022/04/04 18:51:46;;;;;;;55.22;24.17;;;;;;;5.06;100.00;100384.31;4630510;31;20028;-80
2022/04/04 18:54:33;;;;;;;54.65;23.80;;;;;;;5.69;100.00;100482.00;4612851;31;20054;-81
2022/04/04 19:02:51;;;;;;;55.88;24.42;;;;;;;5.53;100.00;100433.25;4750247;25;20117;-80
2022/04/04 19:05:41;;;;;;;59.60;24.30;;;;;;;6.24;100.00;100551.94;4666195;30;20030;-81
2022/04/04 19:08:22;;;;;;;65.82;25.63;;;;;;;5.25;100.00;100379.16;4666035;30;20058;-80
2022/04/04 19:11:03;;;;;;;64.68;26.42;;;;;;;5.14;100.00;100366.88;4666113;30;20037;-81
2022/04/04 19:13:35;;;;;;;67.38;27.13;;;;;;;5.38;100.00;100409.22;4664719;30;20105;-79
2022/04/04 19:16:10;;;;;;;65.03;26.08;;;;;;;5.64;100.00;100440.44;4666082;30;20038;-81
2022/04/04 19:18:35;;;;;;;67.15;26.95;;;;;;;5.56;100.00;100415.19;4665768;30;20397;-80
2022/04/04 19:21:12;;;;;;;71.03;28.75;;;;;;;6.37;100.00;100551.31;4665765;30;20034;-83
2022/04/04 19:23:56;;;;;;;69.13;27.58;;;;;;;6.01;100.00;100483.03;4666029;30;20129;-82
2022/04/04 19:26:32;;;;;;;70.40;30.17;;;;;;;5.71;100.00;100439.22;4665550;30;20031;-85
2022/04/04 19:29:06;;;;;;;76.00;31.30;;;;;;;5.48;100.00;100400.19;4665678;30;20484;-82
2022/04/04 19:35:06;;;;;;;79.50;27.38;;;;;;;6.47;100.00;100548.22;4665899;30;20397;-81
2022/04/04 19:37:44;;;;;;;73.18;29.40;;;;;;;5.24;100.00;100341.66;4665763;30;20397;-82
2022/04/04 19:40:19;;;;;;;72.78;28.23;;;;;;;5.80;100.00;100436.22;4665532;30;20034;-82
2022/04/04 19:43:34;;;;;;;75.78;28.55;;;;;;;6.53;100.00;100541.97;4665488;30;20039;-84
2022/04/04 19:46:36;;;;;;;78.15;30.83;;;;;;;6.55;100.00;100547.84;4612924;31;20460;-81
2022/04/04 19:58:06;;;;;;;81.82;33.50;;;;;;;5.56;100.00;100365.69;4764046;25;20066;-82
2022/04/04 20:00:43;;;;;;;80.95;30.30;;;;;;;5.47;100.00;100354.16;4682097;30;20041;-82
2022/04/04 20:03:14;;;;;;;79.90;31.65;;;;;;;5.74;100.00;100395.53;4681115;30;20038;-81
2022/04/04 20:05:48;;;;;;;82.80;33.15;;;;;;;5.97;100.00;100418.28;4682122;30;20528;-80
2022/04/04 20:08:37;;;;;;;89.75;34.67;;;;;;;6.20;100.00;100450.47;4681395;30;20049;-79
2022/04/04 20:11:25;;;;;;;85.75;33.85;;;;;;;6.74;100.00;100524.66;4682300;30;20038;-82
2022/04/04 20:16:35;;;;;;;85.47;34.30;;;;;;;5.57;100.00;100351.97;4691103;25;20050;-82
2022/04/04 21:13:27;;;;;;;119.18;45.05;;;;;;;7.23;100.00;100506.66;4815503;25;20089;-83
2022/04/04 21:19:36;;;;;;;127.22;46.72;;;;;;;6.90;100.00;100441.63;4615786;30;20090;-83
2022/04/04 21:25:51;;;;;;;127.15;46.83;;;;;;;7.38;100.00;100498.13;4667590;30;20085;-83
2022/04/04 21:35:00;;;;;;;139.02;47.75;;;;;;;6.74;100.00;100371.50;4667775;30;20053;-84
2022/04/04 22:34:25;;;;;;;131.70;44.47;;;;;;;8.59;100.00;100497.16;5038354;25;20058;-82
2022/04/04 22:37:12;;;;;;;129.65;42.67;;;;;;;8.60;100.00;100499.63;4700760;30;20471;-83
2022/04/04 22:44:57;;;;;;;114.53;40.05;;;;;;;7.55;100.00;100335.28;4899166;25;20070;-82
2022/04/04 22:47:22;;;;;;;127.50;40.80;;;;;;;7.85;100.00;100382.31;4666119;30;20571;-80
2022/04/04 22:50:34;;;;;;;108.35;39.78;;;;;;;8.62;100.00;100504.69;5375340;25;20009;-82
2022/04/04 23:18:41;;;;;;;94.63;33.45;;;;;;;8.61;100.00;100508.19;4630125;31;20535;-82
2022/04/04 23:21:13;;;;;;;88.50;32.30;;;;;;;7.78;100.00;100387.94;4629801;31;20560;-82
2022/04/04 23:37:27;;;;;;;90.30;30.45;;;;;;;7.83;100.00;100389.31;5290064;25;20055;-82
2022/04/04 23:49:18;;;;;;;86.97;27.17;;;;;;;8.61;100.00;100518.47;4681005;30;20066;-82
2022/04/04 23:51:49;;;;;;;88.82;29.48;;;;;;;7.56;100.00;100352.34;4682423;30;20491;-82
2022/04/04 23:54:21;;;;;;;86.53;28.52;;;;;;;7.97;100.00;100421.94;4682367;30;20030;-82
